Terminal Aerodrome Forecast
Issued by NWS Midland/Odessa, TX

Home | Current Version | Previous Version | Text Only | Print | Product List | Glossary On
Versions: 1 2 3 4 5 6 7 8 9 10 11 12 13 14 15 16 17 18 19 20 21 22
000
FTUS44 KMAF 201500 AAA
TAFMAF
TAF AMD
KMAF 201537Z 2016/2112 19006KT P6SM SCT150
      TEMPO 2016/2017 BKN010
     FM202200 19012KT P6SM FEW150
     FM210100 18007KT P6SM FEW150=

USA.gov is the U.S. government's official web portal to all federal, state and local government web resources and services.